• Join FlightAware (Why Join?)
  • Login
  • US Flag 
09:01PM EDT


 

Airport Tracker/Info


-or-


 

Live Flight TrackerFlight Track Log ✈ SWA4281 ✈ 27-Dec-2012 ✈ KMDW - KTUS

Flight Track Log - Related Links

Times and Time Zones

All times are in EST time to prevent confusion due to time zone crossing. See the SWA4281 flight status page for this flight to view local times or setup timezone preferences in your user account.

Time Position Orientation Groundspeed Altitude Reporting Facility
EST Latitude Longitude Course Direction KTS MPH feet Rate Location/Type
11:58PM 41.8000 -87.7833 255° West 174 200 2,000  Level Chicago TRACON
11:59PM 41.7833 -87.8667 255° West 227 261 3,000 480 Climbing Chicago TRACON
12:00AM 41.7667 -87.9500 255° West 226 260 3,000  Level Chicago TRACON
12:01AM 41.7592 -87.9633 233° Southwest 229 264 3,000 120 Level Chicago Center
12:02AM 41.7586 -88.0508 270° West 236 272 3,200 1,800 Climbing Chicago Center
12:03AM 41.7578 -88.1469 269° West 248 285 6,700 3,600 Climbing Chicago Center
12:04AM 41.7564 -88.2431 269° West 260 299 10,600 3,180 Climbing Chicago Center
12:05AM 41.7567 -88.3397 270° West 262 302 13,200 2,160 Climbing Chicago Center
12:06AM 41.7569 -88.4394 270° West 268 308 15,100 2,160 Climbing Chicago Center
12:07AM 41.7575 -88.5383 270° West 269 310 17,700 1,680 Climbing Chicago Center
12:08AM 41.7625 -88.6403 274° West 274 315 18,500 1,140 Climbing Chicago Center
12:09AM 41.7675 -88.7958 273° West 347 399 20,000 1,320 Climbing Chicago Center
12:10AM 41.7706 -88.9275 272° West 355 409 21,300 1,020 Climbing Chicago Center
12:11AM 41.7747 -89.0594 272° West 358 412 22,100 1,320 Climbing Chicago Center
12:12AM 41.7800 -89.1936 273° West 361 415 24,000 1,620 Climbing Chicago Center
12:13AM 41.7867 -89.3306 274° West 367 422 25,400 1,440 Climbing Chicago Center
12:14AM 41.7931 -89.4686 274° West 370 426 27,000 1,620 Climbing Chicago Center
12:15AM 41.7881 -89.6025 267° West 383 441 28,800 1,920 Climbing Chicago Center
12:16AM 41.7517 -89.7256 248° West 361 415 31,000 1,980 Climbing Chicago Center
12:17AM 41.7147 -89.8467 248° West 354 407 32,900 1,680 Climbing Chicago Center
12:18AM 41.6792 -89.9642 248° West 348 400 34,400 1,380 Climbing Chicago Center
12:19AM 41.6444 -90.0814 248° West 343 395 35,700 1,080 Climbing Chicago Center
12:20AM 41.6014 -90.2211 248° West 341 392 36,600 720 Climbing Chicago Center
12:21AM 41.5628 -90.3467 248° West 357 411 37,200 540 Climbing Chicago Center
12:22AM 41.5236 -90.4739 248° West 367 422 37,700 360 Climbing Chicago Center
12:23AM 41.4858 -90.5975 248° West 365 420 38,000 120 Climbing Chicago Center
12:24AM 41.4461 -90.7258 248° West 370 426 38,000  Level Chicago Center
12:25AM 41.4058 -90.8536 247° West 374 430 38,000  Level Chicago Center
12:26AM 41.3647 -90.9803 247° West 375 432 38,000  Level Chicago Center
12:27AM 41.3247 -91.1072 247° West 373 429 38,000  Level Chicago Center
12:28AM 41.2850 -91.2328 247° West 371 427 38,000  Level Chicago Center
12:29AM 41.2456 -91.3581 247° West 370 426 38,000  Level Chicago Center
12:30AM 41.2056 -91.4839 247° West 370 426 38,000  Level Chicago Center
12:31AM 41.1661 -91.6092 247° West 370 426 38,000  Level Chicago Center
12:32AM 41.1228 -91.7408 246° West 372 428 38,000  Level Chicago Center
12:33AM 41.0822 -91.8681 247° West 375 432 38,000  Level Chicago Center
12:34AM 41.0408 -91.9931 246° West 375 432 38,000  Level Chicago Center
12:35AM 41.0003 -92.1186 247° West 374 430 38,000  Level Chicago Center
12:36AM 40.9586 -92.2425 246° West 373 429 38,000  Level Chicago Center
12:37AM 40.9094 -92.3925 247° West 374 430 38,000  Level Chicago Center
12:38AM 40.8681 -92.5172 246° West 375 432 38,000  Level Chicago Center
12:39AM 40.8256 -92.6433 246° West 378 435 38,000  Level Chicago Center
12:40AM 40.7839 -92.7692 246° West 379 436 38,000  Level Chicago Center
12:41AM 40.7411 -92.8958 246° West 381 438 38,000  Level Chicago Center
12:42AM 40.6981 -93.0211 246° West 381 438 38,000  Level Chicago Center
12:43AM 40.6561 -93.1467 246° West 380 437 38,000  Level Chicago Center
12:44AM 40.6222 -93.2517 247° West 377 434 38,000  Level Kansas City Center
12:45AM 40.5797 -93.3781 246° West 382 440 38,000  Level Kansas City Center
12:46AM 40.5350 -93.5044 245° Southwest 382 440 38,000  Level Kansas City Center
12:47AM 40.4964 -93.6275 248° West 377 434 38,000  Level Kansas City Center
12:48AM 40.4494 -93.7536 244° Southwest 377 434 38,000  Level Kansas City Center
12:49AM 40.4044 -93.8794 245° Southwest 382 440 38,000  Level Kansas City Center
12:50AM 40.3653 -93.9942 246° West 382 440 38,000  Level Kansas City Center
12:51AM 40.3181 -94.1331 246° West 382 440 38,000  Level Kansas City Center
12:52AM 40.2786 -94.2503 246° West 382 440 38,000  Level Kansas City Center
12:53AM 40.2269 -94.3892 244° Southwest 388 447 38,000  Level Kansas City Center
12:54AM 40.1831 -94.5169 246° West 388 447 38,000  Level Kansas City Center
12:55AM 40.1372 -94.6417 244° Southwest 383 441 38,000  Level Kansas City Center
12:56AM 40.0933 -94.7528 243° Southwest 383 441 38,000  Level Kansas City Center
12:57AM 40.0450 -94.8936 246° West 383 441 38,000  Level Kansas City Center
12:58AM 39.9986 -95.0178 244° Southwest 390 449 38,000  Level Kansas City Center
12:59AM 39.9586 -95.1314 245° Southwest 383 441 38,000  Level Kansas City Center
01:00AM 39.9142 -95.2581 245° Southwest 383 441 38,000  Level Kansas City Center
01:01AM 39.8611 -95.3981 244° Southwest 383 441 38,000  Level Kansas City Center
01:02AM 39.8164 -95.5244 245° Southwest 383 441 38,000  Level Kansas City Center
01:03AM 39.7736 -95.6372 244° Southwest 383 441 38,000  Level Kansas City Center
01:04AM 39.7203 -95.7767 244° Southwest 383 441 38,000  Level Kansas City Center
01:05AM 39.6750 -95.9053 245° Southwest 383 441 38,000  Level Kansas City Center
01:06AM 39.6278 -96.0283 244° Southwest 383 441 38,000  Level Kansas City Center
01:07AM 39.5844 -96.1406 243° Southwest 383 441 38,000  Level Kansas City Center
01:08AM 39.5389 -96.2658 245° Southwest 383 441 38,000  Level Kansas City Center
01:09AM 39.4911 -96.3886 243° Southwest 383 441 38,000  Level Kansas City Center
01:10AM 39.4389 -96.5242 244° Southwest 383 441 38,000  Level Kansas City Center
01:11AM 39.3908 -96.6517 244° Southwest 383 441 38,000  Level Kansas City Center
01:12AM 39.3450 -96.7739 244° Southwest 383 441 38,000  Level Kansas City Center
01:13AM 39.2967 -96.9011 244° Southwest 383 441 38,000  Level Kansas City Center
01:14AM 39.2483 -97.0256 243° Southwest 383 441 38,000  Level Kansas City Center
01:15AM 39.2019 -97.1364 242° Southwest 390 449 38,000  Level Kansas City Center
01:16AM 39.1511 -97.2736 245° Southwest 382 440 38,000  Level Kansas City Center
01:17AM 39.1022 -97.3950 243° Southwest 382 440 38,000  Level Kansas City Center
01:18AM 39.0600 -97.5081 244° Southwest 387 445 38,000  Level Kansas City Center
01:19AM 39.0042 -97.6475 243° Southwest 387 445 38,000  Level Kansas City Center
01:20AM 38.9550 -97.7683 242° Southwest 387 445 38,000  Level Kansas City Center
01:21AM 38.9017 -97.8858 240° Southwest 387 445 38,000  Level Kansas City Center
01:22AM 38.8422 -98.0031 237° Southwest 387 445 38,000  Level Kansas City Center
01:23AM 38.7842 -98.1256 239° Southwest 398 458 38,000  Level Kansas City Center
01:24AM 38.7244 -98.2422 237° Southwest 398 458 38,000  Level Kansas City Center
01:25AM 38.6686 -98.3617 239° Southwest 398 458 38,000  Level Kansas City Center
01:26AM 38.6083 -98.4783 237° Southwest 398 458 38,000  Level Kansas City Center
01:27AM 38.5503 -98.5944 237° Southwest 398 458 38,000  Level Kansas City Center
01:28AM 38.4942 -98.7108 238° Southwest 398 458 38,000  Level Kansas City Center
01:29AM 38.4336 -98.8267 236° Southwest 398 458 38,000  Level Kansas City Center
01:30AM 38.3750 -98.9450 238° Southwest 398 458 38,000  Level Kansas City Center
01:31AM 38.3186 -99.0608 238° Southwest 398 458 38,000  Level Kansas City Center
01:32AM 38.2575 -99.1814 237° Southwest 398 458 38,000  Level Kansas City Center
01:33AM 38.1969 -99.2939 236° Southwest 403 464 38,000  Level Kansas City Center
01:34AM 38.1378 -99.4117 237° Southwest 398 458 38,000  Level Kansas City Center
01:35AM 38.0769 -99.5236 235° Southwest 398 458 38,000  Level Kansas City Center
01:36AM 38.0156 -99.6381 236° Southwest 398 458 38,000  Level Kansas City Center
01:37AM 37.9608 -99.7450 237° Southwest 403 464 38,000  Level Kansas City Center
01:38AM 37.8947 -99.8747 237° Southwest 398 458 38,000  Level Kansas City Center
01:39AM 37.8353 -99.9886 237° Southwest 392 451 38,000  Level Kansas City Center
01:40AM 37.7756 -100.1053 237° Southwest 397 457 38,000  Level Kansas City Center
01:41AM 37.7206 -100.2089 236° Southwest 397 457 38,000  Level Kansas City Center
01:42AM 37.6539 -100.3350 236° Southwest 397 457 38,000  Level Kansas City Center
01:43AM 37.5942 -100.4483 236° Southwest 397 457 38,000  Level Kansas City Center
01:44AM 37.5342 -100.5614 236° Southwest 397 457 38,000  Level Kansas City Center
01:45AM 37.4789 -100.6644 236° Southwest 397 457 38,000  Level Kansas City Center
01:46AM 37.4164 -100.7797 236° Southwest 397 457 38,000  Level Kansas City Center
01:47AM 37.3494 -100.9047 236° Southwest 397 457 38,000  Level Kansas City Center
01:48AM 37.2867 -101.0222 236° Southwest 397 457 38,000  Level Kansas City Center
01:49AM 37.2239 -101.1369 236° Southwest 397 457 38,000  Level Kansas City Center
01:50AM 37.1681 -101.2414 236° Southwest 397 457 38,000  Level Kansas City Center
01:51AM 37.1003 -101.3683 236° Southwest 402 463 38,000  Level Kansas City Center
01:51AM 37.0778 -101.4078 234° Southwest 401 461 38,000  Level Albuquerque Center
01:52AM 37.0072 -101.5336 235° Southwest 397 457 38,000  Level Albuquerque Center
01:53AM 36.9464 -101.6433 235° Southwest 399 459 38,000  Level Albuquerque Center
01:54AM 36.8867 -101.7525 236° Southwest 398 458 38,000  Level Albuquerque Center
01:55AM 36.8172 -101.8800 236° Southwest 397 457 38,000  Level Albuquerque Center
01:56AM 36.7567 -101.9883 235° Southwest 397 457 38,000  Level Albuquerque Center
01:57AM 36.6961 -102.0972 235° Southwest 398 458 38,000  Level Albuquerque Center
01:58AM 36.6242 -102.2275 235° Southwest 398 458 38,000  Level Albuquerque Center
01:59AM 36.5603 -102.3408 235° Southwest 400 460 38,000  Level Albuquerque Center
02:00AM 36.4967 -102.4533 235° Southwest 400 460 38,000  Level Albuquerque Center
02:01AM 36.4328 -102.5672 235° Southwest 401 461 38,000  Level Albuquerque Center
02:02AM 36.3681 -102.6808 235° Southwest 403 464 38,000  Level Albuquerque Center
02:03AM 36.3042 -102.7928 235° Southwest 401 461 38,000  Level Albuquerque Center
02:04AM 36.2378 -102.9094 235° Southwest 401 461 38,000  Level Albuquerque Center
02:05AM 36.1736 -103.0228 235° Southwest 400 460 38,000  Level Albuquerque Center
02:06AM 36.1089 -103.1353 235° Southwest 398 458 38,000  Level Albuquerque Center
02:08AM 36.0382 -103.2452 232° Southwest  Level FlightAware Approximate
02:13AM 35.6578 -103.9119 235° Southwest 393 452 38,000  Level Albuquerque Center
02:15AM 35.5983 -103.9696 234° Southwest  Level FlightAware Approximate
02:15AM 35.5936 -104.0217 234° Southwest 393 452 38,000  Level Albuquerque Center
02:16AM 35.5362 -104.0734 234° Southwest  Level FlightAware Approximate
02:16AM 35.5294 -104.1308 234° Southwest 393 452 38,000  Level Albuquerque Center
02:17AM 35.4739 -104.1770 234° Southwest  Level FlightAware Approximate
02:17AM 35.4644 -104.2394 234° Southwest 394 453 38,000  Level Albuquerque Center
02:18AM 35.4130 -104.2817 235° Southwest  Level FlightAware Approximate
02:18AM 35.4006 -104.3464 234° Southwest 392 451 38,000  Level Albuquerque Center
02:19AM 35.3530 -104.3871 235° Southwest  Level FlightAware Approximate
02:19AM 35.3394 -104.4508 234° Southwest 391 450 38,000  Level Albuquerque Center
02:20AM 35.2700 -104.5703 235° Southwest 390 449 38,000  Level Albuquerque Center
02:21AM 35.2081 -104.6708 233° Southwest 394 453 38,000  Level Albuquerque Center
02:22AM 35.1436 -104.7772 233° Southwest 391 450 38,000  Level Albuquerque Center
02:23AM 35.0803 -104.8836 234° Southwest 388 447 38,000  Level Albuquerque Center
02:24AM 35.0181 -104.9886 234° Southwest 382 440 38,000  Level Albuquerque Center
02:25AM 34.9550 -105.0922 233° Southwest 378 435 38,000  Level Albuquerque Center
02:26AM 34.8928 -105.1953 234° Southwest 376 433 38,000  Level Albuquerque Center
02:27AM 34.8306 -105.2975 233° Southwest 374 430 38,000  Level Albuquerque Center
02:28AM 34.7675 -105.4000 233° Southwest 374 430 38,000  Level Albuquerque Center
02:29AM 34.7047 -105.5017 233° Southwest 373 429 38,000  Level Albuquerque Center
02:30AM 34.6419 -105.6036 233° Southwest 373 429 38,000  Level Albuquerque Center
02:31AM 34.5786 -105.7061 233° Southwest 375 432 38,000  Level Albuquerque Center
02:32AM 34.5153 -105.8092 233° Southwest 377 434 38,000  Level Albuquerque Center
02:33AM 34.4506 -105.9119 233° Southwest 379 436 38,000  Level Albuquerque Center
02:34AM 34.3864 -106.0158 233° Southwest 381 438 38,000  Level Albuquerque Center
02:35AM 34.3217 -106.1178 232° Southwest 380 437 38,000  Level Albuquerque Center
02:36AM 34.2661 -106.2025 232° Southwest 380 437 38,000  Level Albuquerque Center
02:37AM 34.1997 -106.3133 234° Southwest 384 442 38,000  Level Albuquerque Center
02:38AM 34.1364 -106.4133 233° Southwest 380 437 38,000  Level Albuquerque Center
02:39AM 34.0736 -106.5136 233° Southwest 378 435 38,000  Level Albuquerque Center
02:40AM 33.9967 -106.6356 233° Southwest 380 437 38,000  Level Albuquerque Center
02:41AM 33.9331 -106.7356 233° Southwest 379 436 38,000  Level Albuquerque Center
02:42AM 33.8686 -106.8367 233° Southwest 381 438 38,000  Level Albuquerque Center
02:43AM 33.8042 -106.9378 233° Southwest 381 438 38,000  Level Albuquerque Center
02:44AM 33.7400 -107.0386 233° Southwest 381 438 38,000  Level Albuquerque Center
02:45AM 33.6758 -107.1383 232° Southwest 380 437 38,000  Level Albuquerque Center
02:46AM 33.6117 -107.2367 232° Southwest 379 436 38,000 -60 Level Albuquerque Center
02:47AM 33.5489 -107.3339 232° Southwest 375 432 37,900  Descending Albuquerque Center
02:48AM 33.4864 -107.4289 232° Southwest 370 426 38,000  Climbing Albuquerque Center
02:49AM 33.4244 -107.5242 232° Southwest 366 421 38,000  Level Albuquerque Center
02:50AM 33.3767 -107.6319 242° Southwest 373 429 38,000  Level Albuquerque Center
02:51AM 33.3353 -107.7394 245° Southwest 366 421 38,000  Level Albuquerque Center
02:52AM 33.2933 -107.8497 246° West 366 421 38,000  Level Albuquerque Center
02:53AM 33.2514 -107.9617 246° West 369 425 38,000  Level Albuquerque Center
02:54AM 33.2061 -108.0744 244° Southwest 375 432 38,000  Level Albuquerque Center
02:55AM 33.1619 -108.1894 245° Southwest 373 429 38,000  Level Albuquerque Center
02:56AM 33.1197 -108.2981 245° Southwest 368 423 38,000  Level Albuquerque Center
02:57AM 33.0769 -108.4075 245° Southwest 367 422 38,000  Level Albuquerque Center
02:58AM 33.0347 -108.5167 245° Southwest 366 421 38,000  Level Albuquerque Center
02:59AM 32.9839 -108.6453 245° Southwest 361 415 38,000  Level Albuquerque Center
03:00AM 32.9414 -108.7519 245° Southwest 359 413 38,000  Level Albuquerque Center
03:01AM 32.9008 -108.8567 245° Southwest 359 413 38,000  Level Albuquerque Center
03:02AM 32.8614 -108.9625 246° West 355 409 38,000  Level Albuquerque Center
03:03AM 32.8200 -109.0675 245° Southwest 352 405 38,000 -240 Level Albuquerque Center
03:04AM 32.7700 -109.1836 243° Southwest 360 414 37,600 -1,200 Descending Albuquerque Center
03:05AM 32.7281 -109.2900 245° Southwest 359 413 35,700 -2,160 Descending Albuquerque Center
03:06AM 32.6847 -109.3956 244° Southwest 358 412 33,300 -2,700 Descending Albuquerque Center
03:07AM 32.6414 -109.5022 244° Southwest 359 413 30,300 -2,640 Descending Albuquerque Center
03:08AM 32.5983 -109.6058 244° Southwest 357 411 28,000 -2,220 Descending Albuquerque Center
03:09AM 32.5581 -109.7044 244° Southwest 343 395 25,900 -2,160 Descending Albuquerque Center
03:10AM 32.5228 -109.8022 247° West 331 381 23,700 -2,100 Descending Albuquerque Center
03:11AM 32.4836 -109.8981 244° Southwest 325 374 21,700 -2,100 Descending Albuquerque Center
03:12AM 32.4447 -109.9925 244° Southwest 324 373 19,500 -2,340 Descending Albuquerque Center
03:13AM 32.4056 -110.0844 243° Southwest 348 400 17,600 -2,100 Descending Albuquerque Center
03:13AM 32.4025 -110.0942 250° West 339 390 17,400 -2,040 Descending Albuquerque Center
03:13AM 32.3822 -110.1389 242° Southwest 354 407 16,400 -2,280 Descending Albuquerque Center
03:14AM 32.3603 -110.1978 246° West 351 404 15,100 -2,460 Descending Albuquerque Center
03:15AM 32.3400 -110.2594 249° West 342 394 13,700 -2,220 Descending Albuquerque Center
03:15AM 32.3303 -110.3022 255° West 340 391 12,900 -2,280 Descending Albuquerque Center
03:16AM 32.2969 -110.3547 233° Southwest 337 388 11,400 -1,920 Descending Albuquerque Center
03:16AM 32.2711 -110.3986 235° Southwest 327 376 11,000 -480 Descending Albuquerque Center
03:16AM 32.2481 -110.4314 230° Southwest 325 374 11,000 -120 Level Albuquerque Center
03:17AM 32.2183 -110.4797 234° Southwest 312 359 10,900  Descending Albuquerque Center
03:17AM 32.1986 -110.5058 228° Southwest 298 343 11,000 60 Climbing Albuquerque Center
03:18AM 32.1747 -110.5475 236° Southwest 272 313 11,000 -240 Level Albuquerque Center
03:18AM 32.1544 -110.5758 230° Southwest 262 302 10,800 -720 Descending Albuquerque Center
03:19AM 32.1286 -110.6183 234° Southwest 262 302 10,300 -840 Descending Albuquerque Center
03:19AM 32.1117 -110.6406 228° Southwest 247 284 10,000 -1,200 Descending Albuquerque Center
03:20AM 32.0919 -110.6786 239° Southwest 242 278 9,100 -1,560 Descending Albuquerque Center
03:20AM 32.0842 -110.6958 242° Southwest 221 254 8,600 -540 Descending Albuquerque Center
03:21AM 32.0647 -110.7389 242° Southwest 238 274 8,600 -1,320 Level Albuquerque Center
03:21AM 32.0656 -110.7539 274° West 187 215 7,300 -2,100 Descending Albuquerque Center
03:22AM 32.0492 -110.8011 248° West 158 182 6,000 -1,380 Descending Albuquerque Center
03:23AM 32.0519 -110.8481 274° West 152 175 4,600 -1,200 Descending Albuquerque Center
03:24AM 32.0728 -110.8878 302° West 143 165 3,600 -960 Descending Albuquerque Center
03:25AM 32.1006 -110.9206 315° West 144 166 2,700 -900 Descending Albuquerque Center
03:27AM 32.1000 -110.9333 267° West  Level FlightAware Approximate